Impacts METAR Board
IDs:

KPDX - Portland Intl Arpt, OR, US

Updated at: 2200 UTC 21 May 2022
Potential Impact None Slight Moderate High
Time 21/10Z 21/11Z 21/12Z 21/13Z 21/14Z 21/15Z 21/16Z 21/17Z 21/18Z 21/19Z 21/20Z 21/21Z 21/22Z
Temp49 48 47 47 48 50 53 55 59 62 66 68 70
Dewpt42 41 42 41 42 42 43 43 44 44 41 41 39
Altim30.18 30.18 30.19 30.20 30.20 30.21 30.20 30.19 30.18 30.18 30.16 30.15 30.13
VIS10 10 10 10 10 10 10 10 10 10 10 10 10
CIG-- -- -- -- -- -- -- -- -- -- -- -- --
CoverCLRCLRCLRFEWFEWFEWFEWFEWFEWFEWFEWFEWFEW
FltCatVFRVFRVFRVFRVFRVFRVFRVFRVFRVFRVFRVFRVFR
WX--------------------------
WDir0005010340270290270280290290300
WSpd0 0 0 3 3 3 3 7 10 9 11 9 6
WGst-- -- -- -- -- -- -- -- -- -- -- -- --
Raw hourly METARs
KPDX 210953Z 00000KT 10SM CLR 09/06 A3018 RMK AO2 SLP220 T00940056
KPDX 211053Z 00000KT 10SM CLR 09/05 A3018 RMK AO2 SLP220 T00890050
KPDX 211153Z 00000KT 10SM CLR 08/06 A3019 RMK AO2 SLP222 T00830056 10122 20083 55000
KPDX 211253Z 05003KT 10SM FEW010 08/05 A3020 RMK AO2 SLP224 T00830050
KPDX 211353Z 01003KT 10SM FEW005 09/06 A3020 RMK AO2 SLP227 T00890056
KPDX 211453Z 34003KT 10SM FEW005 10/06 A3021 RMK AO2 SLP227 T01000056 52006
KPDX 211553Z 27003KT 10SM FEW020 12/06 A3020 RMK AO2 SLP225 T01170061
KPDX 211653Z 29007KT 10SM FEW020 13/06 A3019 RMK AO2 SLP223 T01280061
KPDX 211753Z 27010KT 10SM FEW035 15/07 A3018 RMK AO2 SLP220 TCU DSNT NE-E T01500067 10150 20083 58008
KPDX 211853Z 28009KT 10SM FEW040 17/07 A3018 RMK AO2 SLP218 TCU DSNT NE T01670067
KPDX 211953Z 29011KT 10SM FEW040 19/05 A3016 RMK AO2 SLP214 CB DSNT NE-E TCU DSNT NE-E T01890050
KPDX 212053Z 29009KT 10SM FEW040 20/05 A3015 RMK AO2 SLP208 TCU DSNT NE-E T02000050 58012
KPDX 212153Z 30006KT 10SM FEW040 21/04 A3013 RMK AO2 SLP204 TCU DSNT NE-E T02110039



Page loaded:  22:03 UTC  |   03:03 PM Pacific  |   04:03 PM Mountain  |   05:03 PM Central  |   06:03 PM Eastern

 

ADVISORIES

FORECASTS

FORECASTS

OBSERVATIONS

USER TOOLS

ABOUT US